Terminal Aerodrome Forecast
Issued by NWS

Home | Current Version | Previous Version | Graphics & Text | Print | Product List | Glossary On
Versions: 1 2 3 4 5 6 7 8 9 10 11 12 13 14 15 16 17 18 19
817
FTUS43 KMPX 210706 AAA
TAFAXN
TAF AMD
KAXN 210706Z 2107/2206 16007KT P6SM FEW250
     FM210730 34015G30KT 4SM TSRA SCT020 BKN050CB
     FM210900 18010KT P6SM BKN050
     FM211600 35009KT P6SM SCT120 BKN250
     FM220000 34005KT P6SM SCT250=

USA.gov is the U.S. government's official web portal to all federal, state and local government web resources and services.